Easton, Maryland
Current Conditions -  °F | °C
As of 5:22 AM on Wednesday 26 Nov 2014 (Local Time) from KESN Reporting Station
Moderate Rain Moderate Rain  
Wind Chill: 46°   Ceiling: 1200
Heat Index: 46°   Visibility: 10mi
Dew Point: 46°   Wind: 3mph
Humidity: 100%   Direction: 80°E
Pressure: 30.12"   Gusts: NA
Location:  38.78°N, 76.06°W
Report Text: KESN 261022Z AUTO 08003KT 10SM RA OVC012 08/08 A3012 RMK AO2 P0003 T00750075
Loading
Personal Weather Stations






























Interactive Weather Map New forecast layout! Learn more

10-Day Weather Forecast

Advertisements
Track Severe Weather on mobile